Nevihte Od: 24-09-2017 01:00 Do: 19:59 Opozorilo za: Nevihte Stopnja: Rumena info button

Mone so krajevne nevihte. Lokalno moni moneji nalivi, pi vetra in udari strel. Hitro lahko narastejo hudourniki vodotoki. Bodite pozorni na bliajoe se nevihtne oblake. Med nevihto se ne zadrujte na izpostavljenih mestih, poakajte na varnem mestu, nevihta obiajno ne traja dolgo.

Dež Od: 24-09-2017 00:00 Do: 23:59 Opozorilo za: Dež Stopnja: Rumena info button

Mone so izdatneje padavine. Koliina padavin : od 25 do 50 mm/24h. Manje reke in vodotoki lahko narastejo in se razlijejo v manjem obsegu. Ljudje, ki ivijo na ogroenih obmojih, naj spremljajo trend vodostaja ter meteoroloka in hidroloka obvestila.

METAR v bližini

 

LIPQ - Ronchi Legionari, Italy
Oddaljenost od postaje: JZ 35km
Podatki zajeti: 24/09/2017 10:20
Nevihta, Pretežno oblačno
Nevihta, Pretežno oblačno
 Veter iz smeri Z
Veter: Z 11 km/h
Temperatura: 15°C
Temp. rosišča: 15°C
Vlažnost: 100%
Tlak: 1018 hPa
Stanje: Thunderstorm Rain
Oblačnost: Pretežno oblačno
Vidljivost: 3 km
Podrobnosti o oblakih: Rahlo oblačno 457 m
Pretežno oblačno 762 m
2017/09/24 08:20 LIPQ 240820Z 28006KT 3000 TSRA FEW015CB BKN025 15/15 Q1018
LIVT - Trieste, Italy
Oddaljenost od postaje: J 49km
Podatki zajeti: 24/09/2017 09:55
Rahlo rosi, Pretežno oblačno
Rahlo rosi, Pretežno oblačno
 Veter iz smeri SSV
Veter: SSV 2 km/h
Temperatura: 17°C
Temp. rosišča: 15°C
Vlažnost: 88%
Tlak: 1017 hPa
Stanje: Rahlo rosi
Oblačnost: Pretežno oblačno
Vidljivost: 10 km
Podrobnosti o oblakih: Pretežno oblačno 762 m
2017/09/24 07:55 LIVT 240755Z 02001KT 9999 -DZ BKN025 17/15 Q1017 RMK OVC QUK 0 QUL 0 VIS MAR 10 KM VIS MIN 9999
 
LIVO - Tarvisio, Italy
Oddaljenost od postaje: SSZ 49km
Podatki zajeti: 24/09/2017 09:55
Pretežno oblačno
Pretežno oblačno
 Veter iz smeri calm
Veter: Tišina
Temperatura: 12°C
Temp. rosišča: 11°C
Vlažnost: 94%
Tlak: 1019 hPa
Oblačnost: Pretežno oblačno
Vidljivost: 10 km
Podrobnosti o oblakih: Delno oblačno 610 m
Pretežno oblačno 853 m
2017/09/24 07:55 LIVO 240755Z 00000KT 9999 SCT020 BKN028 12/11 Q1019 RMK OVC VIS MIN 9999
LIPI - Rivolto (it-Afb), Italy
Oddaljenost od postaje: ZJZ 57km
Podatki zajeti: 22/09/2017 11:55
Ni posodobljen
Rahlo oblačno
Rahlo oblačno
 Veter iz smeri spremenljiv
Veter: spremenljiv 0 km/h
Temperatura: 21°C
Temp. rosišča: 12°C
Vlažnost: 57%
Tlak: 1020 hPa
Oblačnost: Rahlo oblačno
Vidljivost: 10 km
Podrobnosti o oblakih: Rahlo oblačno 914 m
2017/09/22 09:55 LIPI 220955Z /////KT 9999 FEW030 21/12 Q1020 RMK SCT VIS MIN 9999 WIND THR06 VRB03KT WIND THR24 VRB02KT BLU
 
LJLJ - Ljubljana/Brnik, Slovenia
Oddaljenost od postaje: VSV 59km
Podatki zajeti: 24/09/2017 10:30
Oblačno
Oblačno
 Veter iz smeri VJV
Veter: VJV 6 km/h
Temperatura: 14°C
Temp. rosišča: 12°C
Vlažnost: 88%
Tlak: 1020 hPa
Oblačnost: Oblačno
Vidljivost: 10 km
Podrobnosti o oblakih: Delno oblačno 305 m
Oblačno 762 m
2017/09/24 08:30 LJLJ 240830Z 12003KT 9999 SCT010 OVC025 14/12 Q1020 NOSIG
LJPZ - Portoroz, Slovenia
Oddaljenost od postaje: J 68km
Podatki zajeti: 24/09/2017 10:30
Nevihta, Pretežno oblačno
Nevihta, Pretežno oblačno
 Veter iz smeri SSZ
Veter: SSZ 17 km/h
Temperatura: 16°C
Temp. rosišča: 13°C
Vlažnost: 83%
Tlak: 1019 hPa
Stanje: Thunderstorm Rain
Oblačnost: Pretežno oblačno
Vidljivost: 10 km
Podrobnosti o oblakih: Delno oblačno 914 m
Delno oblačno 1219 m
Pretežno oblačno 1829 m
2017/09/24 08:30 LJPZ 240830Z 34009KT 300V020 9999 TSRA SCT030 SCT040CB BKN060 16/13 Q1019
 
LOWK - Klagenfurt(Civ/M, Austria
Oddaljenost od postaje: SV 78km
Podatki zajeti: 24/09/2017 10:20
Pretežno oblačno
Pretežno oblačno
 Veter iz smeri spremenljiv
Veter: spremenljiv 4 km/h
Temperatura: 13°C
Temp. rosišča: 12°C
Vlažnost: 94%
Tlak: 1021 hPa
Oblačnost: Pretežno oblačno
Vidljivost: 10 km
Podrobnosti o oblakih: Rahlo oblačno 122 m
Delno oblačno 244 m
Pretežno oblačno 914 m
2017/09/24 08:20 LOWK 240820Z VRB02KT 9999 FEW004 SCT008 BKN030 13/12 Q1021 NOSIG
LIYW - Aviano (usaf), Italy
Oddaljenost od postaje: Z 86km
Podatki zajeti: 20/10/2015 15:58
Ni posodobljen
Jasno
Jasno
 Veter iz smeri JJZ
Veter: JJZ 6 km/h
Temperatura: 17°C
Temp. rosišča: 3°C
Vlažnost: 39%
Tlak: 1016.3 hPa
Oblačnost: Jasno
Vidljivost: 10 km
2015/10/20 13:58 LIYW 201358Z AUTO 21003KT 9999 CLR 17/03 A3001 RMK AO2 SLP167 T01660029
 
LIPA - Aviano (it/Us-Af, Italy
Oddaljenost od postaje: Z 89km
Podatki zajeti: 23/09/2017 21:55
Ni posodobljen
Pretežno oblačno
Pretežno oblačno
 Veter iz smeri SV
Veter: SV 6 km/h
Temperatura: 18°C
Temp. rosišča: 14°C
Vlažnost: 78%
Tlak: 1019 hPa
Oblačnost: Pretežno oblačno
Vidljivost: 10 km
Podrobnosti o oblakih: Pretežno oblačno 2438 m
2017/09/23 19:55 LIPA 231955Z 05003KT 9999 BKN080 18/14 Q1019 RMK BKN VIS MIN 9999 WIND THR05 07006KT WIND THR23 06003KT A3011 BLU
LDRI - Rijeka/Omisalj, Croatia
Oddaljenost od postaje: JV 115km
Podatki zajeti: 24/09/2017 10:30
Nevihte, Pretežno oblačno
Nevihte, Pretežno oblačno
 Veter iz smeri SSZ
Veter: SSZ 4 km/h
Temperatura: 18°C
Temp. rosišča: 14°C
Vlažnost: 78%
Tlak: 1019 hPa
Stanje: Nevihte
Oblačnost: Pretežno oblačno
Vidljivost: 10 km
Podrobnosti o oblakih: Rahlo oblačno 610 m
Pretežno oblačno 1067 m
2017/09/24 08:30 LDRI 240830Z 33002KT 270V020 9999 TS FEW020CB BKN035 18/14 Q1019
 
LIPZ - Venezia/Tessera, Italy
Oddaljenost od postaje: ZJZ 127km
Podatki zajeti: 24/09/2017 10:20
Manjša nevihta, Dež, Pretežno oblačno
Manjša nevihta, Dež, Pretežno oblačno
 Veter iz smeri S
Veter: S 11 km/h
Temperatura: 15°C
Temp. rosišča: 14°C
Vlažnost: 94%
Tlak: 1018 hPa
Stanje: Manjša nevihta, Dež
Oblačnost: Pretežno oblačno
Vidljivost: 5 km
Podrobnosti o oblakih: Delno oblačno 457 m
Pretežno oblačno 1219 m
2017/09/24 08:20 LIPZ 240820Z 01006KT 330V030 5000 -TSRA SCT015CB BKN040 15/14 Q1018 RESHRA NOSIG
LDPL - Pula, Croatia
Oddaljenost od postaje: J 133km
Podatki zajeti: 24/09/2017 10:30
Močna nevihta, Dež, Hail, Pretežno oblačno
Močna nevihta, Dež, Hail, Pretežno oblačno
 Veter iz smeri VSV
Veter: VSV 24 km/h
Temperatura: 16°C
Temp. rosišča: 16°C
Vlažnost: 100%
Tlak: 1018 hPa
Stanje: Močna nevihta, Dež, Hail
Oblačnost: Pretežno oblačno
Vidljivost: 3 km
Podrobnosti o oblakih: Rahlo oblačno 152 m
Delno oblačno 366 m
Pretežno oblačno 610 m
2017/09/24 08:30 LDPL 240830Z 07013KT 3000 +TSRAGR FEW005 SCT012 BKN020CB 16/16 Q1018 NOSIG
 
LIPS - Istrana (it-Afb), Italy
Oddaljenost od postaje: ZJZ 136km
Podatki zajeti: 24/09/2017 09:55
Rahlo dežuje, Pretežno oblačno
Rahlo dežuje, Pretežno oblačno
 Veter iz smeri S
Veter: S 6 km/h
Temperatura: 15°C
Temp. rosišča: 13°C
Vlažnost: 88%
Tlak: 1019 hPa
Stanje: Rahlo dežuje
Oblačnost: Pretežno oblačno
Vidljivost: 7 km
Podrobnosti o oblakih: Rahlo oblačno 610 m
Pretežno oblačno 2438 m
2017/09/24 07:55 LIPS 240755Z 01003KT 7000 -RA FEW020TCU BKN080 15/13 Q1019 RMK OVC VIS MIN 7000 WIND THR26 03003KT WIND THR08 00000KT WHT
LIVD - Dobbiaco, Italy
Oddaljenost od postaje: ZSZ 137km
Podatki zajeti: 24/09/2017 09:55
Oblačno
Oblačno
 Veter iz smeri calm
Veter: Tišina
Temperatura: 9°C
Temp. rosišča: 8°C
Vlažnost: 94%
Tlak: 1023 hPa
Oblačnost: Oblačno
Vidljivost: 10 km
Podrobnosti o oblakih: Rahlo oblačno 152 m
Oblačno 610 m
2017/09/24 07:55 LIVD 240755Z 00000KT 9999 FEW005 OVC020 09/08 Q1023 RMK OVC VIS MIN 9999
 
LJCE - Cerklje, Slovenia
Oddaljenost od postaje: V 139km
Podatki zajeti: 24/09/2017 10:30
Oblačno
Oblačno
 Veter iz smeri VSV
Veter: VSV 9 km/h
Temperatura: 15°C
Temp. rosišča: 12°C
Vlažnost: 82%
Tlak: 1021 hPa
Oblačnost: Oblačno
Vidljivost: 10 km
Podrobnosti o oblakih: Rahlo oblačno 457 m
Oblačno 914 m
2017/09/24 08:30 LJCE 240830Z 06005KT 9999 FEW015 OVC030 15/12 Q1021 RMK BLU
LOXZ - Zeltweg (mil), Austria
Oddaljenost od postaje: SSV 147km
Podatki zajeti: 24/09/2017 10:20
Delno oblačno
Delno oblačno
 Veter iz smeri spremenljiv
Veter: spremenljiv 4 km/h
Temperatura: 13°C
Temp. rosišča: 9°C
Vlažnost: 77%
Tlak: 1021 hPa
Oblačnost: Delno oblačno
Podrobnosti o oblakih: Rahlo oblačno 213 m
Delno oblačno 1524 m
2017/09/24 08:20 LOXZ 240820Z VRB02KT 20KM FEW007ST SCT050CU 13/09 Q1021 NOSIG